sensor_id;sensor_type;location;lat;lon;timestamp;P1;durP1;ratioP1;P2;durP2;ratioP2
1831;SDS011;1680;48.106;11.708;2023-05-29T00:02:19;6.87;;;6.13;;
1831;SDS011;1680;48.106;11.708;2023-05-29T00:04:48;6.90;;;5.53;;
1831;SDS011;1680;48.106;11.708;2023-05-29T00:07:16;7.33;;;5.77;;
1831;SDS011;1680;48.106;11.708;2023-05-29T00:09:43;7.73;;;6.13;;
1831;SDS011;1680;48.106;11.708;2023-05-29T00:12:10;8.13;;;6.30;;
1831;SDS011;1680;48.106;11.708;2023-05-29T00:14:38;7.33;;;6.30;;
1831;SDS011;1680;48.106;11.708;2023-05-29T00:17:05;11.30;;;5.60;;
1831;SDS011;1680;48.106;11.708;2023-05-29T00:19:33;7.83;;;6.10;;
1831;SDS011;1680;48.106;11.708;2023-05-29T00:22:02;6.07;;;5.47;;
1831;SDS011;1680;48.106;11.708;2023-05-29T00:24:30;7.07;;;6.37;;
1831;SDS011;1680;48.106;11.708;2023-05-29T00:26:57;7.27;;;6.53;;
1831;SDS011;1680;48.106;11.708;2023-05-29T00:29:24;7.63;;;6.23;;
1831;SDS011;1680;48.106;11.708;2023-05-29T00:31:52;6.87;;;6.17;;
1831;SDS011;1680;48.106;11.708;2023-05-29T00:34:21;7.60;;;6.80;;
1831;SDS011;1680;48.106;11.708;2023-05-29T00:36:50;7.53;;;6.60;;
1831;SDS011;1680;48.106;11.708;2023-05-29T00:39:19;6.67;;;6.07;;
1831;SDS011;1680;48.106;11.708;2023-05-29T00:41:47;7.03;;;6.33;;
1831;SDS011;1680;48.106;11.708;2023-05-29T00:44:17;7.93;;;6.03;;
1831;SDS011;1680;48.106;11.708;2023-05-29T00:46:44;9.23;;;6.60;;
1831;SDS011;1680;48.106;11.708;2023-05-29T00:49:12;7.40;;;6.57;;
1831;SDS011;1680;48.106;11.708;2023-05-29T00:51:40;7.83;;;7.00;;
1831;SDS011;1680;48.106;11.708;2023-05-29T00:54:09;7.37;;;6.27;;
1831;SDS011;1680;48.106;11.708;2023-05-29T00:56:41;6.63;;;5.90;;
1831;SDS011;1680;48.106;11.708;2023-05-29T00:59:09;7.50;;;6.20;;
1831;SDS011;1680;48.106;11.708;2023-05-29T01:01:37;7.90;;;6.70;;
1831;SDS011;1680;48.106;11.708;2023-05-29T01:04:05;6.43;;;5.70;;
1831;SDS011;1680;48.106;11.708;2023-05-29T01:06:33;6.60;;;5.90;;
1831;SDS011;1680;48.106;11.708;2023-05-29T01:09:00;7.13;;;6.20;;
1831;SDS011;1680;48.106;11.708;2023-05-29T01:11:31;7.03;;;6.37;;
1831;SDS011;1680;48.106;11.708;2023-05-29T01:14:06;6.67;;;5.97;;
1831;SDS011;1680;48.106;11.708;2023-05-29T01:16:38;6.50;;;5.90;;
1831;SDS011;1680;48.106;11.708;2023-05-29T01:19:16;8.27;;;6.10;;
1831;SDS011;1680;48.106;11.708;2023-05-29T01:22:08;7.63;;;6.63;;
1831;SDS011;1680;48.106;11.708;2023-05-29T01:24:43;7.53;;;6.77;;
1831;SDS011;1680;48.106;11.708;2023-05-29T01:27:19;6.50;;;5.87;;
1831;SDS011;1680;48.106;11.708;2023-05-29T01:29:49;6.37;;;5.50;;
1831;SDS011;1680;48.106;11.708;2023-05-29T01:32:18;6.60;;;5.90;;
1831;SDS011;1680;48.106;11.708;2023-05-29T01:34:47;7.70;;;6.27;;
1831;SDS011;1680;48.106;11.708;2023-05-29T01:37:14;7.97;;;6.37;;
1831;SDS011;1680;48.106;11.708;2023-05-29T01:39:41;8.23;;;6.53;;
1831;SDS011;1680;48.106;11.708;2023-05-29T01:42:09;7.77;;;5.60;;
1831;SDS011;1680;48.106;11.708;2023-05-29T01:44:38;6.67;;;5.93;;
1831;SDS011;1680;48.106;11.708;2023-05-29T01:47:06;7.27;;;5.40;;
1831;SDS011;1680;48.106;11.708;2023-05-29T01:49:34;6.43;;;5.73;;
1831;SDS011;1680;48.106;11.708;2023-05-29T01:52:04;6.13;;;5.47;;
1831;SDS011;1680;48.106;11.708;2023-05-29T01:54:31;6.83;;;5.57;;
1831;SDS011;1680;48.106;11.708;2023-05-29T01:56:59;7.17;;;6.47;;
1831;SDS011;1680;48.106;11.708;2023-05-29T01:59:27;6.53;;;5.93;;
1831;SDS011;1680;48.106;11.708;2023-05-29T02:01:56;6.43;;;5.70;;
1831;SDS011;1680;48.106;11.708;2023-05-29T02:04:23;6.10;;;5.50;;
1831;SDS011;1680;48.106;11.708;2023-05-29T02:06:50;7.80;;;6.10;;
1831;SDS011;1680;48.106;11.708;2023-05-29T02:09:19;6.67;;;5.80;;
1831;SDS011;1680;48.106;11.708;2023-05-29T02:11:47;6.80;;;6.00;;
1831;SDS011;1680;48.106;11.708;2023-05-29T02:14:15;6.23;;;5.53;;
1831;SDS011;1680;48.106;11.708;2023-05-29T02:16:42;7.60;;;6.37;;
1831;SDS011;1680;48.106;11.708;2023-05-29T02:19:11;11.20;;;5.90;;
1831;SDS011;1680;48.106;11.708;2023-05-29T02:21:38;6.80;;;6.10;;
1831;SDS011;1680;48.106;11.708;2023-05-29T02:24:06;6.23;;;5.63;;
1831;SDS011;1680;48.106;11.708;2023-05-29T02:26:33;6.27;;;5.40;;
1831;SDS011;1680;48.106;11.708;2023-05-29T02:29:01;6.23;;;5.63;;
1831;SDS011;1680;48.106;11.708;2023-05-29T02:31:30;8.53;;;5.50;;
1831;SDS011;1680;48.106;11.708;2023-05-29T02:33:58;8.50;;;6.43;;
1831;SDS011;1680;48.106;11.708;2023-05-29T02:36:26;8.33;;;6.30;;
1831;SDS011;1680;48.106;11.708;2023-05-29T02:38:54;8.27;;;5.90;;
1831;SDS011;1680;48.106;11.708;2023-05-29T02:41:21;5.80;;;5.30;;
1831;SDS011;1680;48.106;11.708;2023-05-29T02:43:48;6.57;;;5.57;;
1831;SDS011;1680;48.106;11.708;2023-05-29T02:46:15;6.40;;;5.47;;
1831;SDS011;1680;48.106;11.708;2023-05-29T02:48:43;6.63;;;5.70;;
1831;SDS011;1680;48.106;11.708;2023-05-29T02:51:10;6.03;;;5.53;;
1831;SDS011;1680;48.106;11.708;2023-05-29T02:53:38;5.50;;;4.90;;
1831;SDS011;1680;48.106;11.708;2023-05-29T02:56:06;7.17;;;5.43;;
1831;SDS011;1680;48.106;11.708;2023-05-29T02:58:34;5.57;;;4.90;;
1831;SDS011;1680;48.106;11.708;2023-05-29T03:01:01;7.10;;;5.87;;
1831;SDS011;1680;48.106;11.708;2023-05-29T03:03:29;6.77;;;5.47;;
1831;SDS011;1680;48.106;11.708;2023-05-29T03:05:56;5.97;;;5.33;;
1831;SDS011;1680;48.106;11.708;2023-05-29T03:08:24;6.77;;;5.83;;
1831;SDS011;1680;48.106;11.708;2023-05-29T03:10:54;6.70;;;6.00;;
1831;SDS011;1680;48.106;11.708;2023-05-29T03:13:22;5.70;;;5.00;;
1831;SDS011;1680;48.106;11.708;2023-05-29T03:15:49;6.10;;;5.17;;
1831;SDS011;1680;48.106;11.708;2023-05-29T03:18:21;8.63;;;5.27;;
1831;SDS011;1680;48.106;11.708;2023-05-29T03:20:49;5.67;;;5.17;;
1831;SDS011;1680;48.106;11.708;2023-05-29T03:23:16;5.77;;;5.17;;
1831;SDS011;1680;48.106;11.708;2023-05-29T03:25:43;6.40;;;5.37;;
1831;SDS011;1680;48.106;11.708;2023-05-29T03:28:12;6.03;;;5.50;;
1831;SDS011;1680;48.106;11.708;2023-05-29T03:30:39;5.93;;;5.30;;
1831;SDS011;1680;48.106;11.708;2023-05-29T03:33:06;7.67;;;4.93;;
1831;SDS011;1680;48.106;11.708;2023-05-29T03:35:33;7.03;;;5.57;;
1831;SDS011;1680;48.106;11.708;2023-05-29T03:38:00;6.93;;;5.70;;
1831;SDS011;1680;48.106;11.708;2023-05-29T03:40:27;5.57;;;4.83;;
1831;SDS011;1680;48.106;11.708;2023-05-29T03:42:55;5.97;;;4.97;;
1831;SDS011;1680;48.106;11.708;2023-05-29T03:45:23;6.63;;;5.40;;
1831;SDS011;1680;48.106;11.708;2023-05-29T03:47:50;5.93;;;5.23;;
1831;SDS011;1680;48.106;11.708;2023-05-29T03:50:18;6.67;;;5.50;;
1831;SDS011;1680;48.106;11.708;2023-05-29T03:52:45;5.73;;;5.10;;
1831;SDS011;1680;48.106;11.708;2023-05-29T03:55:12;6.27;;;5.47;;
1831;SDS011;1680;48.106;11.708;2023-05-29T03:57:39;5.67;;;5.17;;
1831;SDS011;1680;48.106;11.708;2023-05-29T04:00:07;7.10;;;5.23;;
1831;SDS011;1680;48.106;11.708;2023-05-29T04:02:37;6.30;;;5.00;;
1831;SDS011;1680;48.106;11.708;2023-05-29T04:05:05;6.97;;;5.83;;
1831;SDS011;1680;48.106;11.708;2023-05-29T04:07:33;7.60;;;5.50;;
1831;SDS011;1680;48.106;11.708;2023-05-29T04:10:02;5.87;;;5.27;;
1831;SDS011;1680;48.106;11.708;2023-05-29T04:12:29;6.10;;;5.60;;
1831;SDS011;1680;48.106;11.708;2023-05-29T04:14:56;5.10;;;4.60;;
1831;SDS011;1680;48.106;11.708;2023-05-29T04:17:24;6.80;;;5.43;;
1831;SDS011;1680;48.106;11.708;2023-05-29T04:19:52;6.13;;;5.33;;
1831;SDS011;1680;48.106;11.708;2023-05-29T04:22:20;6.57;;;5.57;;
1831;SDS011;1680;48.106;11.708;2023-05-29T04:24:47;6.60;;;5.40;;
1831;SDS011;1680;48.106;11.708;2023-05-29T04:27:14;5.80;;;5.20;;
1831;SDS011;1680;48.106;11.708;2023-05-29T04:29:41;5.80;;;5.00;;
1831;SDS011;1680;48.106;11.708;2023-05-29T04:32:09;5.00;;;4.50;;
1831;SDS011;1680;48.106;11.708;2023-05-29T04:34:36;7.87;;;5.43;;
1831;SDS011;1680;48.106;11.708;2023-05-29T04:37:06;6.00;;;5.40;;
1831;SDS011;1680;48.106;11.708;2023-05-29T04:39:33;5.40;;;4.90;;
1831;SDS011;1680;48.106;11.708;2023-05-29T04:42:00;6.93;;;4.90;;
1831;SDS011;1680;48.106;11.708;2023-05-29T04:44:28;5.27;;;4.70;;
1831;SDS011;1680;48.106;11.708;2023-05-29T04:46:55;5.60;;;4.80;;
1831;SDS011;1680;48.106;11.708;2023-05-29T04:49:22;5.50;;;5.00;;
1831;SDS011;1680;48.106;11.708;2023-05-29T04:51:50;5.00;;;4.50;;
1831;SDS011;1680;48.106;11.708;2023-05-29T04:54:21;6.00;;;4.90;;
1831;SDS011;1680;48.106;11.708;2023-05-29T04:56:49;6.03;;;5.13;;
1831;SDS011;1680;48.106;11.708;2023-05-29T04:59:16;6.37;;;4.67;;
1831;SDS011;1680;48.106;11.708;2023-05-29T05:01:43;5.50;;;5.00;;
1831;SDS011;1680;48.106;11.708;2023-05-29T05:04:12;5.60;;;4.43;;
1831;SDS011;1680;48.106;11.708;2023-05-29T05:06:39;6.77;;;6.10;;
1831;SDS011;1680;48.106;11.708;2023-05-29T05:09:09;7.23;;;4.70;;
1831;SDS011;1680;48.106;11.708;2023-05-29T05:11:37;5.90;;;5.20;;
1831;SDS011;1680;48.106;11.708;2023-05-29T05:14:04;6.43;;;4.83;;
1831;SDS011;1680;48.106;11.708;2023-05-29T05:16:31;8.17;;;5.30;;
1831;SDS011;1680;48.106;11.708;2023-05-29T05:18:59;6.27;;;5.10;;
1831;SDS011;1680;48.106;11.708;2023-05-29T05:21:26;5.53;;;5.00;;
1831;SDS011;1680;48.106;11.708;2023-05-29T05:23:56;6.50;;;5.80;;
1831;SDS011;1680;48.106;11.708;2023-05-29T05:26:23;5.50;;;5.00;;
1831;SDS011;1680;48.106;11.708;2023-05-29T05:28:53;7.87;;;5.77;;
1831;SDS011;1680;48.106;11.708;2023-05-29T05:31:20;6.47;;;5.47;;
1831;SDS011;1680;48.106;11.708;2023-05-29T05:33:48;7.23;;;5.93;;
1831;SDS011;1680;48.106;11.708;2023-05-29T05:36:15;10.23;;;6.50;;
1831;SDS011;1680;48.106;11.708;2023-05-29T05:38:42;7.50;;;6.20;;
1831;SDS011;1680;48.106;11.708;2023-05-29T05:41:10;8.03;;;6.23;;
1831;SDS011;1680;48.106;11.708;2023-05-29T05:43:37;8.70;;;7.10;;
1831;SDS011;1680;48.106;11.708;2023-05-29T05:46:05;7.57;;;6.77;;
1831;SDS011;1680;48.106;11.708;2023-05-29T05:48:32;10.57;;;6.57;;
1831;SDS011;1680;48.106;11.708;2023-05-29T05:51:00;9.70;;;7.20;;
1831;SDS011;1680;48.106;11.708;2023-05-29T05:53:27;8.80;;;6.00;;
1831;SDS011;1680;48.106;11.708;2023-05-29T05:55:54;8.67;;;6.90;;
1831;SDS011;1680;48.106;11.708;2023-05-29T05:58:21;7.73;;;6.90;;
1831;SDS011;1680;48.106;11.708;2023-05-29T06:00:48;11.13;;;7.30;;
1831;SDS011;1680;48.106;11.708;2023-05-29T06:03:19;9.07;;;7.20;;
1831;SDS011;1680;48.106;11.708;2023-05-29T06:05:46;8.43;;;7.20;;
1831;SDS011;1680;48.106;11.708;2023-05-29T06:08:13;8.87;;;7.20;;
1831;SDS011;1680;48.106;11.708;2023-05-29T06:10:41;9.80;;;6.83;;
1831;SDS011;1680;48.106;11.708;2023-05-29T06:13:08;7.13;;;6.43;;
1831;SDS011;1680;48.106;11.708;2023-05-29T06:15:36;8.53;;;7.17;;
1831;SDS011;1680;48.106;11.708;2023-05-29T06:18:04;7.43;;;6.43;;
1831;SDS011;1680;48.106;11.708;2023-05-29T06:20:32;7.57;;;6.87;;
1831;SDS011;1680;48.106;11.708;2023-05-29T06:22:59;7.37;;;6.60;;
1831;SDS011;1680;48.106;11.708;2023-05-29T06:25:27;8.03;;;6.30;;
1831;SDS011;1680;48.106;11.708;2023-05-29T06:27:58;9.47;;;6.80;;
1831;SDS011;1680;48.106;11.708;2023-05-29T06:30:25;7.97;;;7.17;;
1831;SDS011;1680;48.106;11.708;2023-05-29T06:32:53;11.00;;;7.43;;
1831;SDS011;1680;48.106;11.708;2023-05-29T06:35:20;7.97;;;6.83;;
1831;SDS011;1680;48.106;11.708;2023-05-29T06:37:48;7.90;;;6.77;;
1831;SDS011;1680;48.106;11.708;2023-05-29T06:40:16;8.47;;;6.40;;
1831;SDS011;1680;48.106;11.708;2023-05-29T06:42:43;8.13;;;6.03;;
1831;SDS011;1680;48.106;11.708;2023-05-29T06:45:10;7.90;;;6.67;;
1831;SDS011;1680;48.106;11.708;2023-05-29T06:47:39;7.53;;;5.77;;
1831;SDS011;1680;48.106;11.708;2023-05-29T06:50:07;8.27;;;6.33;;
1831;SDS011;1680;48.106;11.708;2023-05-29T06:52:34;7.60;;;6.17;;
1831;SDS011;1680;48.106;11.708;2023-05-29T06:55:03;7.20;;;6.13;;
1831;SDS011;1680;48.106;11.708;2023-05-29T06:57:31;9.67;;;7.13;;
1831;SDS011;1680;48.106;11.708;2023-05-29T06:59:58;8.03;;;6.60;;
1831;SDS011;1680;48.106;11.708;2023-05-29T07:02:25;7.77;;;6.13;;
1831;SDS011;1680;48.106;11.708;2023-05-29T07:04:52;9.23;;;6.47;;
1831;SDS011;1680;48.106;11.708;2023-05-29T07:07:20;10.53;;;6.73;;
1831;SDS011;1680;48.106;11.708;2023-05-29T07:09:47;7.13;;;6.40;;
1831;SDS011;1680;48.106;11.708;2023-05-29T07:12:15;7.00;;;6.30;;
1831;SDS011;1680;48.106;11.708;2023-05-29T07:14:42;8.17;;;6.77;;
1831;SDS011;1680;48.106;11.708;2023-05-29T07:17:13;7.50;;;6.67;;
1831;SDS011;1680;48.106;11.708;2023-05-29T07:19:40;8.80;;;7.53;;
1831;SDS011;1680;48.106;11.708;2023-05-29T07:22:07;8.27;;;6.60;;
1831;SDS011;1680;48.106;11.708;2023-05-29T07:24:35;7.87;;;6.43;;
1831;SDS011;1680;48.106;11.708;2023-05-29T07:27:02;9.93;;;6.57;;
1831;SDS011;1680;48.106;11.708;2023-05-29T07:29:31;8.13;;;6.40;;
1831;SDS011;1680;48.106;11.708;2023-05-29T07:31:58;8.07;;;7.20;;
1831;SDS011;1680;48.106;11.708;2023-05-29T07:34:26;7.43;;;6.63;;
1831;SDS011;1680;48.106;11.708;2023-05-29T07:36:56;8.33;;;6.70;;
1831;SDS011;1680;48.106;11.708;2023-05-29T07:39:26;8.30;;;7.10;;
1831;SDS011;1680;48.106;11.708;2023-05-29T07:41:53;8.80;;;7.20;;
1831;SDS011;1680;48.106;11.708;2023-05-29T07:44:21;10.50;;;7.63;;
1831;SDS011;1680;48.106;11.708;2023-05-29T07:46:49;8.93;;;7.40;;
1831;SDS011;1680;48.106;11.708;2023-05-29T07:49:16;7.60;;;6.40;;
1831;SDS011;1680;48.106;11.708;2023-05-29T07:51:43;10.23;;;6.97;;
1831;SDS011;1680;48.106;11.708;2023-05-29T07:54:11;9.90;;;7.80;;
1831;SDS011;1680;48.106;11.708;2023-05-29T07:56:38;8.70;;;7.30;;
1831;SDS011;1680;48.106;11.708;2023-05-29T07:59:06;8.33;;;6.97;;
1831;SDS011;1680;48.106;11.708;2023-05-29T08:01:34;9.00;;;7.30;;
1831;SDS011;1680;48.106;11.708;2023-05-29T08:04:02;9.30;;;7.10;;
1831;SDS011;1680;48.106;11.708;2023-05-29T08:06:29;8.87;;;7.90;;
1831;SDS011;1680;48.106;11.708;2023-05-29T08:08:57;7.60;;;6.80;;
1831;SDS011;1680;48.106;11.708;2023-05-29T08:11:25;10.43;;;6.80;;
1831;SDS011;1680;48.106;11.708;2023-05-29T08:13:52;8.77;;;7.00;;
1831;SDS011;1680;48.106;11.708;2023-05-29T08:16:19;8.80;;;6.80;;
1831;SDS011;1680;48.106;11.708;2023-05-29T08:18:47;8.33;;;7.00;;
1831;SDS011;1680;48.106;11.708;2023-05-29T08:21:15;8.40;;;6.07;;
1831;SDS011;1680;48.106;11.708;2023-05-29T08:23:43;8.00;;;7.20;;
1831;SDS011;1680;48.106;11.708;2023-05-29T08:26:10;8.00;;;6.60;;
1831;SDS011;1680;48.106;11.708;2023-05-29T08:28:37;8.83;;;6.77;;
1831;SDS011;1680;48.106;11.708;2023-05-29T08:31:05;7.87;;;7.07;;
1831;SDS011;1680;48.106;11.708;2023-05-29T08:33:32;9.37;;;7.23;;
1831;SDS011;1680;48.106;11.708;2023-05-29T08:36:02;7.70;;;6.90;;
1831;SDS011;1680;48.106;11.708;2023-05-29T08:38:30;8.30;;;6.70;;
1831;SDS011;1680;48.106;11.708;2023-05-29T08:40:58;7.70;;;6.93;;
1831;SDS011;1680;48.106;11.708;2023-05-29T08:43:26;7.60;;;6.73;;
1831;SDS011;1680;48.106;11.708;2023-05-29T08:45:58;7.13;;;6.10;;
1831;SDS011;1680;48.106;11.708;2023-05-29T08:48:27;7.43;;;6.70;;
1831;SDS011;1680;48.106;11.708;2023-05-29T08:50:55;11.10;;;7.23;;
1831;SDS011;1680;48.106;11.708;2023-05-29T08:53:23;7.83;;;7.03;;
1831;SDS011;1680;48.106;11.708;2023-05-29T08:55:53;8.03;;;7.20;;
1831;SDS011;1680;48.106;11.708;2023-05-29T08:58:22;8.43;;;7.10;;
1831;SDS011;1680;48.106;11.708;2023-05-29T09:00:49;9.00;;;7.07;;
1831;SDS011;1680;48.106;11.708;2023-05-29T09:03:17;8.20;;;6.40;;
1831;SDS011;1680;48.106;11.708;2023-05-29T09:05:45;8.80;;;7.03;;
1831;SDS011;1680;48.106;11.708;2023-05-29T09:08:13;9.63;;;7.03;;
1831;SDS011;1680;48.106;11.708;2023-05-29T09:10:41;7.03;;;6.20;;
1831;SDS011;1680;48.106;11.708;2023-05-29T09:13:10;7.10;;;6.40;;
1831;SDS011;1680;48.106;11.708;2023-05-29T09:15:38;9.23;;;7.20;;
1831;SDS011;1680;48.106;11.708;2023-05-29T09:18:08;8.33;;;6.87;;
1831;SDS011;1680;48.106;11.708;2023-05-29T09:20:35;6.73;;;6.03;;
1831;SDS011;1680;48.106;11.708;2023-05-29T09:23:04;8.80;;;6.60;;
1831;SDS011;1680;48.106;11.708;2023-05-29T09:25:35;8.00;;;6.27;;
1831;SDS011;1680;48.106;11.708;2023-05-29T09:28:07;8.10;;;6.77;;
1831;SDS011;1680;48.106;11.708;2023-05-29T09:30:37;6.53;;;5.40;;
1831;SDS011;1680;48.106;11.708;2023-05-29T09:33:06;8.40;;;5.70;;
1831;SDS011;1680;48.106;11.708;2023-05-29T09:35:35;6.57;;;5.87;;
1831;SDS011;1680;48.106;11.708;2023-05-29T09:38:03;9.23;;;5.90;;
1831;SDS011;1680;48.106;11.708;2023-05-29T09:40:31;6.43;;;5.77;;
1831;SDS011;1680;48.106;11.708;2023-05-29T09:43:03;6.50;;;5.50;;
1831;SDS011;1680;48.106;11.708;2023-05-29T09:45:32;5.90;;;5.40;;
1831;SDS011;1680;48.106;11.708;2023-05-29T09:48:01;6.73;;;5.93;;
1831;SDS011;1680;48.106;11.708;2023-05-29T09:50:28;7.50;;;5.93;;
1831;SDS011;1680;48.106;11.708;2023-05-29T09:52:56;6.07;;;5.10;;
1831;SDS011;1680;48.106;11.708;2023-05-29T09:55:23;6.50;;;5.83;;
1831;SDS011;1680;48.106;11.708;2023-05-29T09:57:53;5.80;;;5.30;;
1831;SDS011;1680;48.106;11.708;2023-05-29T10:00:21;8.50;;;5.90;;
1831;SDS011;1680;48.106;11.708;2023-05-29T10:02:48;6.80;;;5.80;;
1831;SDS011;1680;48.106;11.708;2023-05-29T10:05:17;7.07;;;5.30;;
1831;SDS011;1680;48.106;11.708;2023-05-29T10:07:46;6.83;;;5.50;;
1831;SDS011;1680;48.106;11.708;2023-05-29T10:10:18;7.83;;;5.80;;
1831;SDS011;1680;48.106;11.708;2023-05-29T10:12:47;5.60;;;4.90;;
1831;SDS011;1680;48.106;11.708;2023-05-29T10:15:16;6.17;;;5.33;;
1831;SDS011;1680;48.106;11.708;2023-05-29T10:17:49;6.20;;;5.60;;
1831;SDS011;1680;48.106;11.708;2023-05-29T10:20:19;6.73;;;5.60;;
1831;SDS011;1680;48.106;11.708;2023-05-29T10:22:50;6.07;;;5.47;;
1831;SDS011;1680;48.106;11.708;2023-05-29T10:25:21;6.00;;;5.20;;
1831;SDS011;1680;48.106;11.708;2023-05-29T10:27:50;7.20;;;5.70;;
1831;SDS011;1680;48.106;11.708;2023-05-29T10:30:21;7.10;;;5.70;;
1831;SDS011;1680;48.106;11.708;2023-05-29T10:33:07;5.90;;;5.20;;
1831;SDS011;1680;48.106;11.708;2023-05-29T10:35:50;5.90;;;5.23;;
1831;SDS011;1680;48.106;11.708;2023-05-29T10:38:23;8.70;;;5.83;;
1831;SDS011;1680;48.106;11.708;2023-05-29T10:40:51;5.67;;;5.10;;
1831;SDS011;1680;48.106;11.708;2023-05-29T10:46:05;6.33;;;5.73;;
1831;SDS011;1680;48.106;11.708;2023-05-29T10:48:39;8.10;;;6.10;;
1831;SDS011;1680;48.106;11.708;2023-05-29T10:51:08;6.53;;;5.73;;
1831;SDS011;1680;48.106;11.708;2023-05-29T10:53:51;8.30;;;5.90;;
1831;SDS011;1680;48.106;11.708;2023-05-29T10:56:22;5.20;;;4.70;;
1831;SDS011;1680;48.106;11.708;2023-05-29T10:58:55;8.90;;;5.50;;
1831;SDS011;1680;48.106;11.708;2023-05-29T11:01:23;7.73;;;5.80;;
1831;SDS011;1680;48.106;11.708;2023-05-29T11:03:51;6.90;;;5.70;;
1831;SDS011;1680;48.106;11.708;2023-05-29T11:06:20;6.43;;;5.83;;
1831;SDS011;1680;48.106;11.708;2023-05-29T11:08:53;6.80;;;5.90;;
1831;SDS011;1680;48.106;11.708;2023-05-29T11:11:30;6.70;;;5.57;;
1831;SDS011;1680;48.106;11.708;2023-05-29T11:14:01;6.67;;;5.97;;
1831;SDS011;1680;48.106;11.708;2023-05-29T11:16:39;5.93;;;5.43;;
1831;SDS011;1680;48.106;11.708;2023-05-29T11:19:06;7.03;;;5.37;;
1831;SDS011;1680;48.106;11.708;2023-05-29T11:21:44;5.93;;;5.33;;
1831;SDS011;1680;48.106;11.708;2023-05-29T11:24:21;7.23;;;5.40;;
1831;SDS011;1680;48.106;11.708;2023-05-29T11:26:50;6.40;;;5.23;;
1831;SDS011;1680;48.106;11.708;2023-05-29T11:29:22;6.17;;;5.33;;
1831;SDS011;1680;48.106;11.708;2023-05-29T11:31:54;7.67;;;5.73;;
1831;SDS011;1680;48.106;11.708;2023-05-29T11:34:24;6.87;;;5.43;;
1831;SDS011;1680;48.106;11.708;2023-05-29T11:36:57;6.33;;;5.53;;
1831;SDS011;1680;48.106;11.708;2023-05-29T11:39:25;7.73;;;5.87;;
1831;SDS011;1680;48.106;11.708;2023-05-29T11:41:52;6.03;;;5.23;;
1831;SDS011;1680;48.106;11.708;2023-05-29T11:44:23;7.40;;;5.80;;
1831;SDS011;1680;48.106;11.708;2023-05-29T11:46:59;6.20;;;4.87;;
1831;SDS011;1680;48.106;11.708;2023-05-29T11:49:28;6.80;;;5.13;;
1831;SDS011;1680;48.106;11.708;2023-05-29T11:52:06;8.37;;;6.30;;
1831;SDS011;1680;48.106;11.708;2023-05-29T11:54:34;8.10;;;5.27;;
1831;SDS011;1680;48.106;11.708;2023-05-29T11:57:02;6.60;;;5.20;;
1831;SDS011;1680;48.106;11.708;2023-05-29T11:59:31;5.93;;;5.20;;
1831;SDS011;1680;48.106;11.708;2023-05-29T12:01:58;8.03;;;5.23;;
1831;SDS011;1680;48.106;11.708;2023-05-29T12:04:25;6.03;;;5.33;;
1831;SDS011;1680;48.106;11.708;2023-05-29T12:06:53;5.80;;;5.20;;
1831;SDS011;1680;48.106;11.708;2023-05-29T12:09:24;5.50;;;5.00;;
1831;SDS011;1680;48.106;11.708;2023-05-29T12:11:53;5.43;;;4.93;;
1831;SDS011;1680;48.106;11.708;2023-05-29T12:14:21;5.80;;;5.30;;
1831;SDS011;1680;48.106;11.708;2023-05-29T12:16:48;6.03;;;5.50;;
1831;SDS011;1680;48.106;11.708;2023-05-29T12:19:15;5.50;;;5.00;;
1831;SDS011;1680;48.106;11.708;2023-05-29T12:21:42;5.20;;;4.70;;
1831;SDS011;1680;48.106;11.708;2023-05-29T12:24:10;5.63;;;5.03;;
1831;SDS011;1680;48.106;11.708;2023-05-29T12:26:38;5.73;;;5.23;;
1831;SDS011;1680;48.106;11.708;2023-05-29T12:29:06;6.10;;;5.50;;
1831;SDS011;1680;48.106;11.708;2023-05-29T12:31:33;5.77;;;5.27;;
1831;SDS011;1680;48.106;11.708;2023-05-29T12:34:00;5.50;;;5.00;;
1831;SDS011;1680;48.106;11.708;2023-05-29T12:36:28;5.70;;;5.10;;
1831;SDS011;1680;48.106;11.708;2023-05-29T12:38:56;6.00;;;5.50;;
1831;SDS011;1680;48.106;11.708;2023-05-29T12:41:24;5.97;;;4.90;;
1831;SDS011;1680;48.106;11.708;2023-05-29T12:43:54;5.60;;;4.87;;
1831;SDS011;1680;48.106;11.708;2023-05-29T12:46:22;6.07;;;5.47;;
1831;SDS011;1680;48.106;11.708;2023-05-29T12:48:52;5.90;;;5.30;;
1831;SDS011;1680;48.106;11.708;2023-05-29T12:51:22;6.23;;;5.70;;
1831;SDS011;1680;48.106;11.708;2023-05-29T12:53:50;5.47;;;4.27;;
1831;SDS011;1680;48.106;11.708;2023-05-29T12:56:20;5.80;;;5.20;;
1831;SDS011;1680;48.106;11.708;2023-05-29T12:58:49;5.40;;;4.87;;
1831;SDS011;1680;48.106;11.708;2023-05-29T13:01:18;5.30;;;4.70;;
1831;SDS011;1680;48.106;11.708;2023-05-29T13:03:46;5.37;;;4.77;;
1831;SDS011;1680;48.106;11.708;2023-05-29T13:06:13;6.30;;;5.10;;
1831;SDS011;1680;48.106;11.708;2023-05-29T13:08:40;6.33;;;4.67;;
1831;SDS011;1680;48.106;11.708;2023-05-29T13:11:07;5.33;;;4.80;;
1831;SDS011;1680;48.106;11.708;2023-05-29T13:13:35;5.17;;;4.67;;
1831;SDS011;1680;48.106;11.708;2023-05-29T13:16:02;4.83;;;4.43;;
1831;SDS011;1680;48.106;11.708;2023-05-29T13:18:30;5.30;;;4.80;;
1831;SDS011;1680;48.106;11.708;2023-05-29T13:20:59;6.47;;;5.40;;
1831;SDS011;1680;48.106;11.708;2023-05-29T13:23:26;5.37;;;4.87;;
1831;SDS011;1680;48.106;11.708;2023-05-29T13:25:53;5.90;;;5.37;;
1831;SDS011;1680;48.106;11.708;2023-05-29T13:28:20;6.60;;;5.10;;
1831;SDS011;1680;48.106;11.708;2023-05-29T13:30:49;7.43;;;4.83;;
1831;SDS011;1680;48.106;11.708;2023-05-29T13:33:16;6.20;;;5.10;;
1831;SDS011;1680;48.106;11.708;2023-05-29T13:35:44;5.73;;;4.70;;
1831;SDS011;1680;48.106;11.708;2023-05-29T13:38:12;4.80;;;4.40;;
1831;SDS011;1680;48.106;11.708;2023-05-29T13:40:39;5.80;;;5.00;;
1831;SDS011;1680;48.106;11.708;2023-05-29T13:43:06;4.97;;;4.40;;
1831;SDS011;1680;48.106;11.708;2023-05-29T13:45:33;5.63;;;5.10;;
1831;SDS011;1680;48.106;11.708;2023-05-29T13:48:01;5.47;;;4.97;;
1831;SDS011;1680;48.106;11.708;2023-05-29T13:50:28;5.93;;;4.90;;
1831;SDS011;1680;48.106;11.708;2023-05-29T13:52:57;5.53;;;4.80;;
1831;SDS011;1680;48.106;11.708;2023-05-29T13:55:24;5.00;;;4.50;;
1831;SDS011;1680;48.106;11.708;2023-05-29T13:57:51;5.20;;;4.67;;
1831;SDS011;1680;48.106;11.708;2023-05-29T14:00:19;5.27;;;4.77;;
1831;SDS011;1680;48.106;11.708;2023-05-29T14:02:46;5.60;;;5.10;;
1831;SDS011;1680;48.106;11.708;2023-05-29T14:05:13;5.23;;;4.73;;
1831;SDS011;1680;48.106;11.708;2023-05-29T14:07:41;5.90;;;5.10;;
1831;SDS011;1680;48.106;11.708;2023-05-29T14:10:10;5.77;;;5.27;;
1831;SDS011;1680;48.106;11.708;2023-05-29T14:12:37;6.13;;;4.90;;
1831;SDS011;1680;48.106;11.708;2023-05-29T14:15:04;6.67;;;4.73;;
1831;SDS011;1680;48.106;11.708;2023-05-29T14:17:32;5.43;;;4.93;;
1831;SDS011;1680;48.106;11.708;2023-05-29T14:19:59;7.27;;;5.03;;
1831;SDS011;1680;48.106;11.708;2023-05-29T14:22:33;5.70;;;5.10;;
1831;SDS011;1680;48.106;11.708;2023-05-29T14:25:02;6.93;;;5.07;;
1831;SDS011;1680;48.106;11.708;2023-05-29T14:27:31;7.63;;;4.93;;
1831;SDS011;1680;48.106;11.708;2023-05-29T14:29:58;5.60;;;5.00;;
1831;SDS011;1680;48.106;11.708;2023-05-29T14:32:26;8.00;;;5.07;;
1831;SDS011;1680;48.106;11.708;2023-05-29T14:34:53;5.30;;;4.57;;
1831;SDS011;1680;48.106;11.708;2023-05-29T14:37:22;6.47;;;4.50;;
1831;SDS011;1680;48.106;11.708;2023-05-29T14:39:50;5.70;;;5.10;;
1831;SDS011;1680;48.106;11.708;2023-05-29T14:42:17;6.57;;;4.80;;
1831;SDS011;1680;48.106;11.708;2023-05-29T14:44:45;5.43;;;4.43;;
1831;SDS011;1680;48.106;11.708;2023-05-29T14:47:13;6.33;;;5.50;;
1831;SDS011;1680;48.106;11.708;2023-05-29T14:49:40;5.20;;;4.70;;
1831;SDS011;1680;48.106;11.708;2023-05-29T14:52:07;5.90;;;5.30;;
1831;SDS011;1680;48.106;11.708;2023-05-29T14:54:34;5.70;;;5.00;;
1831;SDS011;1680;48.106;11.708;2023-05-29T14:57:01;11.93;;;5.43;;
1831;SDS011;1680;48.106;11.708;2023-05-29T14:59:28;6.90;;;5.20;;
1831;SDS011;1680;48.106;11.708;2023-05-29T15:01:57;5.77;;;5.27;;
1831;SDS011;1680;48.106;11.708;2023-05-29T15:04:25;5.80;;;4.93;;
1831;SDS011;1680;48.106;11.708;2023-05-29T15:06:52;4.37;;;3.97;;
1831;SDS011;1680;48.106;11.708;2023-05-29T15:09:20;7.07;;;4.90;;
1831;SDS011;1680;48.106;11.708;2023-05-29T15:11:48;7.80;;;5.13;;